CheckWX is a tool to help pilots better visualize weather data.  It is not intended as a substitute for an official pre-flight weather briefing.

06:31:38 UTC

ENOA METAR
Oseberg A Platform Heliport
Norway
Current

12 mins ago

ENOA 030620Z 34029KT 9999 VCSH FEW022CB SCT045 02/M01 Q1001 W///S5
Observed
Apr-3 @ 06:20 UTC
Wind
  • 340° at 29 KTS
Visibility
10,000+ meters
Flight Rules
VFR
Conditions
Area Showers
Cloud Levels
  • Few at 2,200' AGL
  • Scattered at 4,500' AGL
Temperature
C / 36°F
Dewpoint
-1°C / 30°F
Humidity
81%
Altimeter
29.56" Hg
Pressure
1000.92 hPa
Previous

42 mins ago

ENOA 030550Z 34019KT 9999 VCSH FEW025CB SCT040 01/M03 Q1001 W///S6
Observed
Apr-3 @ 05:50 UTC
Wind
  • 340° at 19 KTS
Visibility
10,000+ meters
Flight Rules
VFR
Conditions
Area Showers
Cloud Levels
  • Few at 2,500' AGL
  • Scattered at 4,000' AGL
Temperature
C / 34°F
Dewpoint
-3°C / 27°F
Humidity
75%
Altimeter
29.56" Hg
Pressure
1000.92 hPa
Previous

1 hour ago

ENOA 030520Z 35017KT 9999 VCSH SCT025CB 01/M02 Q1000 RESHRASN W///S6
Observed
Apr-3 @ 05:20 UTC
Wind
  • 350° at 17 KTS
Visibility
10,000+ meters
Flight Rules
VFR
Conditions
Area Showers
Cloud Levels
  • Scattered at 2,500' AGL
Temperature
C / 34°F
Dewpoint
-2°C / 28°F
Humidity
81%
Altimeter
29.53" Hg
Pressure
999.92 hPa